Time,TemperatureF,DewpointF,PressureIn,WindDirection,WindDirectionDegrees,WindSpeedMPH,WindSpeedGustMPH,Humidity,HourlyPrecipIn,Conditions,Clouds,dailyrainin,SoftwareType,DateUTC
2013-01-27 00:05:00,9.4,4.0,30.35,WNW,290,0.0,0.0,78,0.00,,,0.00,weatherlink.com 1.10,2013-01-27 05:05:00,
2013-01-27 00:20:00,8.7,3.0,30.35,NW,325,0.0,1.0,79,0.00,,,0.00,weatherlink.com 1.10,2013-01-27 05:20:00,
2013-01-27 00:35:00,7.8,3.0,30.35,NW,316,0.0,1.0,80,0.00,,,0.00,weatherlink.com 1.10,2013-01-27 05:35:00,
2013-01-27 00:50:00,6.9,2.0,30.36,WNW,293,1.0,1.0,81,0.00,,,0.00,weatherlink.com 1.10,2013-01-27 05:50:00,
2013-01-27 01:05:00,7.8,3.0,30.36,WNW,293,0.0,4.0,82,0.00,,,0.00,weatherlink.com 1.10,2013-01-27 06:05:00,
2013-01-27 01:20:00,8.4,4.0,30.36,West,270,0.0,1.0,82,0.00,,,0.00,weatherlink.com 1.10,2013-01-27 06:20:00,
2013-01-27 01:50:00,8.3,4.0,30.38,WSW,256,0.0,2.0,83,0.00,,,0.00,weatherlink.com 1.10,2013-01-27 06:50:00,
2013-01-27 02:05:00,6.1,2.0,30.38,WSW,256,0.0,0.0,83,0.00,,,0.00,weatherlink.com 1.10,2013-01-27 07:05:00,
2013-01-27 02:20:00,8.7,6.0,30.39,WNW,302,0.0,3.0,88,0.00,,,0.00,weatherlink.com 1.10,2013-01-27 07:20:00,
2013-01-27 02:35:00,9.7,6.0,30.39,WNW,292,0.0,3.0,86,0.00,,,0.00,weatherlink.com 1.10,2013-01-27 07:35:00,
2013-01-27 02:50:00,9.7,6.0,30.39,WNW,283,0.0,1.0,85,0.00,,,0.00,weatherlink.com 1.10,2013-01-27 07:50:00,
2013-01-27 03:05:00,9.2,6.0,30.39,West,274,0.0,0.0,85,0.00,,,0.00,weatherlink.com 1.10,2013-01-27 08:05:00,
2013-01-27 03:20:00,8.0,5.0,30.39,West,274,0.0,0.0,86,0.00,,,0.00,weatherlink.com 1.10,2013-01-27 08:20:00,
2013-01-27 03:35:00,5.9,2.0,30.39,West,274,0.0,0.0,84,0.00,,,0.00,weatherlink.com 1.10,2013-01-27 08:35:00,
2013-01-27 03:50:00,4.6,2.0,30.40,West,274,0.0,0.0,88,0.00,,,0.00,weatherlink.com 1.10,2013-01-27 08:50:00,
2013-01-27 04:05:00,7.8,6.0,30.40,WNW,290,0.0,4.0,91,0.00,,,0.00,weatherlink.com 1.10,2013-01-27 09:05:00,
2013-01-27 04:21:00,9.4,6.0,30.41,West,280,1.0,3.0,87,0.00,,,0.00,weatherlink.com 1.10,2013-01-27 09:21:00,
2013-01-27 04:35:00,9.5,6.0,30.41,NNW,335,0.0,2.0,86,0.00,,,0.00,weatherlink.com 1.10,2013-01-27 09:35:00,
2013-01-27 04:50:00,9.4,6.0,30.42,WSW,247,0.0,2.0,86,0.00,,,0.00,weatherlink.com 1.10,2013-01-27 09:50:00,
2013-01-27 05:06:00,9.1,6.0,30.42,WSW,257,1.0,3.0,87,0.00,,,0.00,weatherlink.com 1.10,2013-01-27 10:06:00,
2013-01-27 05:20:00,8.9,6.0,30.42,West,268,0.0,2.0,87,0.00,,,0.00,weatherlink.com 1.10,2013-01-27 10:20:00,
2013-01-27 05:35:00,8.8,6.0,30.43,West,281,0.0,1.0,88,0.00,,,0.00,weatherlink.com 1.10,2013-01-27 10:35:00,
2013-01-27 05:50:00,9.7,7.0,30.43,WNW,285,1.0,4.0,88,0.00,,,0.00,weatherlink.com 1.10,2013-01-27 10:50:00,
2013-01-27 06:06:00,10.0,7.0,30.44,West,278,1.0,2.0,86,0.00,,,0.00,weatherlink.com 1.10,2013-01-27 11:06:00,
2013-01-27 06:21:00,10.3,7.0,30.44,WNW,293,2.0,3.0,86,0.00,,,0.00,weatherlink.com 1.10,2013-01-27 11:21:00,
2013-01-27 06:36:00,10.4,7.0,30.44,NW,311,1.0,3.0,85,0.00,,,0.00,weatherlink.com 1.10,2013-01-27 11:36:00,
2013-01-27 06:51:00,10.7,7.0,30.45,WNW,288,1.0,4.0,85,0.00,,,0.00,weatherlink.com 1.10,2013-01-27 11:51:00,
2013-01-27 07:06:00,10.6,7.0,30.45,North,352,0.0,3.0,84,0.00,,,0.00,weatherlink.com 1.10,2013-01-27 12:06:00,
2013-01-27 07:24:00,10.6,7.0,30.46,NW,304,1.0,3.0,84,0.00,,,0.00,weatherlink.com 1.10,2013-01-27 12:24:00,
2013-01-27 07:36:00,10.4,6.0,30.46,WNW,294,0.0,4.0,83,0.00,,,0.00,weatherlink.com 1.10,2013-01-27 12:36:00,
2013-01-27 07:52:00,10.5,6.0,30.47,NW,314,2.0,4.0,82,0.00,,,0.00,weatherlink.com 1.10,2013-01-27 12:52:00,
2013-01-27 08:06:00,11.1,6.0,30.47,WSW,253,2.0,9.0,81,0.00,,,0.00,weatherlink.com 1.10,2013-01-27 13:06:00,
2013-01-27 08:21:00,11.6,6.0,30.48,WNW,291,1.0,6.0,79,0.00,,,0.00,weatherlink.com 1.10,2013-01-27 13:21:00,
2013-01-27 08:36:00,12.2,6.0,30.48,NW,315,1.0,7.0,77,0.00,,,0.00,weatherlink.com 1.10,2013-01-27 13:36:00,
2013-01-27 08:51:00,12.7,6.0,30.49,WNW,288,5.0,8.0,75,0.00,,,0.00,weatherlink.com 1.10,2013-01-27 13:51:00,
2013-01-27 09:06:00,13.3,6.0,30.49,SW,236,1.0,8.0,72,0.00,,,0.00,weatherlink.com 1.10,2013-01-27 14:06:00,
2013-01-27 09:21:00,13.9,6.0,30.49,WSW,246,7.0,8.0,71,0.00,,,0.00,weatherlink.com 1.10,2013-01-27 14:21:00,
2013-01-27 09:36:00,14.3,6.0,30.49,WNW,293,2.0,7.0,68,0.00,,,0.00,weatherlink.com 1.10,2013-01-27 14:36:00,
2013-01-27 09:52:00,15.4,6.0,30.50,WNW,300,1.0,7.0,66,0.00,,,0.00,weatherlink.com 1.10,2013-01-27 14:52:00,
2013-01-27 10:06:00,16.4,5.0,30.51,North,8,3.0,8.0,62,0.00,,,0.00,weatherlink.com 1.10,2013-01-27 15:06:00,
2013-01-27 10:21:00,17.2,6.0,30.51,West,270,2.0,7.0,61,0.00,,,0.00,weatherlink.com 1.10,2013-01-27 15:21:00,
2013-01-27 10:36:00,17.8,6.0,30.52,West,276,1.0,6.0,60,0.00,,,0.00,weatherlink.com 1.10,2013-01-27 15:36:00,
2013-01-27 10:51:00,18.0,6.0,30.52,West,269,4.0,7.0,59,0.00,,,0.00,weatherlink.com 1.10,2013-01-27 15:51:00,
2013-01-27 11:06:00,18.8,6.0,30.52,NW,311,2.0,5.0,57,0.00,,,0.00,weatherlink.com 1.10,2013-01-27 16:06:00,
2013-01-27 11:22:00,19.6,6.0,30.51,WNW,282,1.0,6.0,56,0.00,,,0.00,weatherlink.com 1.10,2013-01-27 16:22:00,
2013-01-27 11:37:00,20.4,5.0,30.51,NW,305,0.0,7.0,52,0.00,,,0.00,weatherlink.com 1.10,2013-01-27 16:37:00,
2013-01-27 11:52:00,21.1,5.0,30.50,NW,316,3.0,4.0,51,0.00,,,0.00,weatherlink.com 1.10,2013-01-27 16:52:00,
2013-01-27 12:07:00,21.3,5.0,30.50,WNW,288,2.0,5.0,49,0.00,,,0.00,weatherlink.com 1.10,2013-01-27 17:07:00,
2013-01-27 12:22:00,22.1,5.0,30.49,NNW,327,1.0,8.0,48,0.00,,,0.00,weatherlink.com 1.10,2013-01-27 17:22:00,
2013-01-27 12:37:00,22.8,5.0,30.49,NW,315,3.0,8.0,46,0.00,,,0.00,weatherlink.com 1.10,2013-01-27 17:37:00,
2013-01-27 12:52:00,22.8,3.0,30.48,NNW,342,2.0,7.0,43,0.00,,,0.00,weatherlink.com 1.10,2013-01-27 17:52:00,
2013-01-27 13:07:00,23.2,4.0,30.48,South,188,2.0,5.0,44,0.00,,,0.00,weatherlink.com 1.10,2013-01-27 18:07:00,
2013-01-27 13:22:00,24.0,5.0,30.47,NW,316,1.0,5.0,44,0.00,,,0.00,weatherlink.com 1.10,2013-01-27 18:22:00,
2013-01-27 13:37:00,24.7,4.0,30.47,WNW,284,3.0,6.0,41,0.00,,,0.00,weatherlink.com 1.10,2013-01-27 18:37:00,
2013-01-27 13:52:00,24.7,4.0,30.47,WSW,242,2.0,5.0,41,0.00,,,0.00,weatherlink.com 1.10,2013-01-27 18:52:00,
2013-01-27 14:07:00,25.4,5.0,30.47,NW,305,3.0,6.0,41,0.00,,,0.00,weatherlink.com 1.10,2013-01-27 19:07:00,
2013-01-27 14:22:00,25.9,5.0,30.46,SSW,197,0.0,6.0,40,0.00,,,0.00,weatherlink.com 1.10,2013-01-27 19:22:00,
2013-01-27 14:37:00,25.9,3.0,30.46,NW,311,1.0,9.0,38,0.00,,,0.00,weatherlink.com 1.10,2013-01-27 19:37:00,
2013-01-27 14:52:00,26.5,4.0,30.47,WNW,286,2.0,7.0,38,0.00,,,0.00,weatherlink.com 1.10,2013-01-27 19:52:00,
2013-01-27 15:07:00,25.9,4.0,30.47,WNW,293,2.0,7.0,39,0.00,,,0.00,weatherlink.com 1.10,2013-01-27 20:07:00,
2013-01-27 15:22:00,25.4,3.0,30.47,WNW,301,1.0,9.0,38,0.00,,,0.00,weatherlink.com 1.10,2013-01-27 20:22:00,
2013-01-27 15:37:00,25.3,4.0,30.48,NW,309,2.0,5.0,40,0.00,,,0.00,weatherlink.com 1.10,2013-01-27 20:37:00,
2013-01-27 15:52:00,24.5,2.0,30.49,WNW,290,2.0,9.0,38,0.00,,,0.00,weatherlink.com 1.10,2013-01-27 20:52:00,
2013-01-27 16:07:00,23.9,2.0,30.48,West,262,3.0,7.0,38,0.00,,,0.00,weatherlink.com 1.10,2013-01-27 21:07:00,
2013-01-27 16:22:00,23.4,2.0,30.48,NW,316,0.0,5.0,39,0.00,,,0.00,weatherlink.com 1.10,2013-01-27 21:22:00,
2013-01-27 16:37:00,22.9,2.0,30.49,WNW,284,2.0,5.0,40,0.00,,,0.00,weatherlink.com 1.10,2013-01-27 21:37:00,
2013-01-27 16:52:00,22.3,2.0,30.49,WNW,286,1.0,5.0,41,0.00,,,0.00,weatherlink.com 1.10,2013-01-27 21:52:00,
2013-01-27 17:07:00,21.9,1.0,30.49,West,270,1.0,5.0,41,0.00,,,0.00,weatherlink.com 1.10,2013-01-27 22:07:00,
2013-01-27 17:22:00,21.5,2.0,30.49,NW,304,1.0,8.0,42,0.00,,,0.00,weatherlink.com 1.10,2013-01-27 22:22:00,
2013-01-27 17:37:00,21.1,2.0,30.49,WNW,285,0.0,4.0,44,0.00,,,0.00,weatherlink.com 1.10,2013-01-27 22:37:00,
2013-01-27 17:54:00,20.8,2.0,30.49,NW,319,0.0,4.0,45,0.00,,,0.00,weatherlink.com 1.10,2013-01-27 22:54:00,
2013-01-27 18:07:00,20.0,3.0,30.50,West,269,0.0,3.0,47,0.00,,,0.00,weatherlink.com 1.10,2013-01-27 23:07:00,
2013-01-27 18:22:00,20.0,4.0,30.50,WNW,284,1.0,5.0,49,0.00,,,0.00,weatherlink.com 1.10,2013-01-27 23:22:00,
2013-01-27 18:38:00,19.8,4.0,30.51,West,267,1.0,5.0,50,0.00,,,0.00,weatherlink.com 1.10,2013-01-27 23:38:00,
2013-01-27 18:52:00,19.8,4.0,30.50,WNW,293,0.0,8.0,51,0.00,,,0.00,weatherlink.com 1.10,2013-01-27 23:52:00,
2013-01-27 19:07:00,19.7,5.0,30.49,West,278,0.0,4.0,52,0.00,,,0.00,weatherlink.com 1.10,2013-01-28 00:07:00,
2013-01-27 19:23:00,19.5,4.0,30.49,SW,229,3.0,7.0,52,0.00,,,0.00,weatherlink.com 1.10,2013-01-28 00:23:00,
2013-01-27 19:38:00,19.3,5.0,30.49,WNW,288,2.0,5.0,53,0.00,,,0.00,weatherlink.com 1.10,2013-01-28 00:38:00,
2013-01-27 19:52:00,19.0,4.0,30.48,NNW,328,0.0,4.0,53,0.00,,,0.00,weatherlink.com 1.10,2013-01-28 00:52:00,
2013-01-27 20:07:00,18.5,4.0,30.48,NNW,330,1.0,3.0,54,0.00,,,0.00,weatherlink.com 1.10,2013-01-28 01:07:00,
2013-01-27 20:23:00,18.9,4.0,30.49,WNW,288,0.0,3.0,53,0.00,,,0.00,weatherlink.com 1.10,2013-01-28 01:23:00,
2013-01-27 20:38:00,18.9,4.0,30.48,West,280,0.0,5.0,53,0.00,,,0.00,weatherlink.com 1.10,2013-01-28 01:38:00,
2013-01-27 20:52:00,18.5,4.0,30.48,West,271,0.0,2.0,54,0.00,,,0.00,weatherlink.com 1.10,2013-01-28 01:52:00,
2013-01-27 21:07:00,17.9,5.0,30.49,WSW,250,0.0,1.0,56,0.00,,,0.00,weatherlink.com 1.10,2013-01-28 02:07:00,
2013-01-27 21:22:00,16.8,4.0,30.49,WSW,247,0.0,0.0,58,0.00,,,0.00,weatherlink.com 1.10,2013-01-28 02:22:00,
2013-01-27 21:37:00,15.0,4.0,30.49,WSW,246,0.0,0.0,62,0.00,,,0.00,weatherlink.com 1.10,2013-01-28 02:37:00,
2013-01-27 21:52:00,13.6,5.0,30.49,WSW,246,0.0,0.0,67,0.00,,,0.00,weatherlink.com 1.10,2013-01-28 02:52:00,
2013-01-27 22:07:00,13.2,5.0,30.50,WSW,247,0.0,0.0,70,0.00,,,0.00,weatherlink.com 1.10,2013-01-28 03:07:00,
2013-01-27 22:23:00,13.6,6.0,30.49,WSW,246,0.0,0.0,72,0.00,,,0.00,weatherlink.com 1.10,2013-01-28 03:23:00,
2013-01-27 22:38:00,13.8,7.0,30.49,WSW,246,0.0,0.0,73,0.00,,,0.00,weatherlink.com 1.10,2013-01-28 03:38:00,
2013-01-27 22:52:00,14.7,8.0,30.48,WSW,250,0.0,0.0,73,0.00,,,0.00,weatherlink.com 1.10,2013-01-28 03:52:00,
2013-01-27 23:07:00,15.0,8.0,30.48,WSW,250,0.0,0.0,75,0.00,,,0.00,weatherlink.com 1.10,2013-01-28 04:07:00,
2013-01-27 23:22:00,14.7,8.0,30.48,WSW,250,0.0,0.0,74,0.00,,,0.00,weatherlink.com 1.10,2013-01-28 04:22:00,
2013-01-27 23:37:00,13.7,7.0,30.48,WSW,250,0.0,0.0,73,0.00,,,0.00,weatherlink.com 1.10,2013-01-28 04:37:00,
2013-01-27 23:53:00,12.8,7.0,30.48,WSW,250,0.0,0.0,76,0.00,,,0.00,weatherlink.com 1.10,2013-01-28 04:53:00,